Time;durP1;ratioP1;P1;durP2;ratioP2;P2;SDS_P1;SDS_P2;PMS_P1;PMS_P2;Temp;Humidity;BMP_temperature;BMP_pressure;BME280_temperature;BME280_humidity;BME280_pressure;Samples;Min_cycle;Max_cycle;Signal;HPM_P1;HPM_P2
2023/03/30 15:39:22;;;;;;;;;;;;;;;;;;;;;
2023/03/30 15:45:18;;;;;;;26.08;17.05;;;;;;;;;;4831272;29;20042;-93
2023/03/30 15:47:44;;;;;;;23.38;16.15;;;;;;;;;;4865962;29;20125;-94
2023/03/30 15:50:14;;;;;;;23.55;16.45;;;;;;;;;;4866331;29;20066;-93
2023/03/30 15:53:09;;;;;;;23.27;17.08;;;;;;;;;;4864618;29;20105;-92
2023/03/30 15:55:39;;;;;;;24.02;16.05;;;;;;;;;;4852641;29;20062;-93
2023/03/30 15:58:12;;;;;;;35.10;18.55;;;;;;;;;;4873143;29;20093;-92
2023/03/30 16:00:38;;;;;;;24.63;16.80;;;;;;;;;;4872158;29;20033;-93
2023/03/30 16:03:13;;;;;;;25.90;16.58;;;;;;;;;;4876448;29;20041;-94
2023/03/30 16:05:42;;;;;;;23.70;16.17;;;;;;;;;;4867017;29;20033;-93
2023/03/30 16:08:08;;;;;;;25.73;15.95;;;;;;;;;;4867825;29;20041;-96
2023/03/30 16:10:38;;;;;;;25.35;16.00;;;;;;;;;;4868401;29;20037;-96
2023/03/30 16:13:13;;;;;;;23.05;15.55;;;;;;;;;;4881393;29;20025;-94
2023/03/30 16:15:39;;;;;;;29.33;18.10;;;;;;;;;;4866950;29;20029;-91
2023/03/30 16:26:51;;;;;;;32.13;16.58;;;;;;;;;;5130123;23;20029;-90
2023/03/30 16:29:30;;;;;;;24.38;15.95;;;;;;;;;;4876920;29;20033;-89
2023/03/30 16:32:02;;;;;;;23.67;15.30;;;;;;;;;;4874310;29;20032;-89
2023/03/30 16:34:34;;;;;;;22.70;15.52;;;;;;;;;;4872267;29;20037;-90
2023/03/30 16:37:00;;;;;;;24.45;17.20;;;;;;;;;;4875520;29;20033;-92
2023/03/30 16:39:31;;;;;;;29.92;18.20;;;;;;;;;;4871801;29;20085;-91
2023/03/30 16:41:58;;;;;;;29.15;19.10;;;;;;;;;;4871107;29;20045;-91
2023/03/30 16:44:24;;;;;;;27.30;18.38;;;;;;;;;;4870621;29;20500;-91
2023/03/30 16:46:51;;;;;;;27.20;19.35;;;;;;;;;;4883025;29;20025;-91
2023/03/30 16:49:20;;;;;;;28.27;19.95;;;;;;;;;;5226793;23;20064;-91
2023/03/30 16:51:47;;;;;;;29.60;20.25;;;;;;;;;;4906255;29;20035;-93
2023/03/30 16:54:19;;;;;;;24.77;17.13;;;;;;;;;;4889096;29;20037;-95
2023/03/30 16:57:05;;;;;;;37.30;23.52;;;;;;;;;;4886327;29;20040;-94
2023/03/30 17:05:13;;;;;;;44.40;28.67;;;;;;;;;;5861001;23;20023;-92
2023/03/30 17:07:45;;;;;;;30.55;22.17;;;;;;;;;;4878707;29;20089;-93
2023/03/30 17:10:32;;;;;;;35.75;23.65;;;;;;;;;;4876212;29;20021;-94
2023/03/30 17:13:23;;;;;;;;;;;;;;;;;;;;;
2023/03/30 17:18:49;;;;;;;30.27;20.35;;;;;;;;;;5518121;23;20055;31
2023/03/30 17:21:44;;;;;;;35.15;22.70;;;;;;;;;;5743865;23;20024;-95
2023/03/30 17:30:23;;;;;;;36.42;23.65;;;;;;;;;;4356725;23;20857;-93
2023/03/30 17:33:14;;;;;;;39.33;25.37;;;;;;;;;;4864353;29;20372;-96
2023/03/30 17:36:00;;;;;;;31.30;21.27;;;;;;;;;;4931651;23;20056;-92
2023/03/30 17:39:06;;;;;;;33.22;22.77;;;;;;;;;;4904891;29;20036;-96
2023/03/30 17:46:52;;;;;;;35.47;24.13;;;;;;;;;;4980591;23;20053;-95
2023/03/30 17:49:52;;;;;;;33.17;22.77;;;;;;;;;;4874104;29;20486;-96
2023/03/30 17:52:34;;;;;;;30.63;22.17;;;;;;;;;;4869993;29;20033;-94
2023/03/30 18:14:02;;;;;;;45.58;28.95;;;;;;;;;;4893758;29;20059;-96
2023/03/30 18:33:22;;;;;;;61.30;36.10;;;;;;;;;;4869468;29;20053;-96
2023/03/30 18:36:11;;;;;;;49.55;32.13;;;;;;;;;;4854468;29;20030;-95
2023/03/30 18:38:43;;;;;;;45.60;29.05;;;;;;;;;;4846574;29;20055;-96
2023/03/30 18:44:16;;;;;;;44.05;30.65;;;;;;;;;;5232085;23;20064;-95
2023/03/30 18:47:25;;;;;;;37.58;26.40;;;;;;;;;;4843132;29;20042;-93
2023/03/30 18:50:00;;;;;;;30.35;21.25;;;;;;;;;;4822340;29;20144;-94
2023/03/30 19:02:06;;;;;;;36.72;25.38;;;;;;;;;;4862394;29;20052;-95
2023/03/30 19:16:53;;;;;;;43.38;29.10;;;;;;;;;;4879945;29;20435;-95
2023/03/30 19:19:24;;;;;;;43.53;29.13;;;;;;;;;;4875790;29;20059;-93
2023/03/30 19:22:02;;;;;;;49.67;31.20;;;;;;;;;;4874536;29;20037;-94
2023/03/30 19:24:46;;;;;;;38.42;25.63;;;;;;;;;;4856170;29;20505;-94
2023/03/30 19:59:05;;;;;;;;;;;;;;;;;;;;;
2023/03/30 20:01:56;;;;;;;68.82;44.45;;;;;;;;;;4866978;29;20048;-95
2023/03/30 20:04:22;;;;;;;70.70;44.55;;;;;;;;;;4848889;29;20102;-95
2023/03/30 20:06:55;;;;;;;65.97;41.17;;;;;;;;;;4848594;29;20038;-94
2023/03/30 20:09:52;;;;;;;69.47;42.90;;;;;;;;;;4848930;29;20100;-93
2023/03/30 20:15:24;;;;;;;54.47;38.03;;;;;;;;;;4869400;29;20075;-94
2023/03/30 20:17:55;;;;;;;74.72;44.55;;;;;;;;;;4849074;29;20045;-96
2023/03/30 20:20:33;;;;;;;71.53;43.38;;;;;;;;;;4862854;29;20037;-95
2023/03/30 20:23:05;;;;;;;65.20;42.50;;;;;;;;;;4840000;29;20430;-95
2023/03/30 20:26:01;;;;;;;68.95;44.05;;;;;;;;;;4849052;29;20362;-95
2023/03/30 20:28:33;;;;;;;97.72;49.65;;;;;;;;;;4851685;29;20475;-95
2023/03/30 20:31:00;;;;;;;54.78;39.08;;;;;;;;;;4848030;29;20068;-95
2023/03/30 20:33:35;;;;;;;65.93;40.50;;;;;;;;;;4848748;29;20041;-94
2023/03/30 20:36:11;;;;;;;55.00;36.13;;;;;;;;;;4849958;29;20061;-96
2023/03/30 20:38:44;;;;;;;55.58;38.10;;;;;;;;;;4924890;23;20031;-93
2023/03/30 20:41:11;;;;;;;53.67;37.55;;;;;;;;;;4876663;29;20052;-96
2023/03/30 20:46:33;;;;;;;57.63;37.88;;;;;;;;;;4883615;29;20093;-94
2023/03/30 20:49:02;;;;;;;56.20;37.95;;;;;;;;;;4866371;29;20048;-94
2023/03/30 20:51:28;;;;;;;63.25;41.05;;;;;;;;;;4866634;29;20487;-95
2023/03/30 20:54:12;;;;;;;44.67;31.05;;;;;;;;;;4869238;29;20580;-95
2023/03/30 20:56:38;;;;;;;47.47;33.60;;;;;;;;;;4884351;29;20045;-96
2023/03/30 21:08:36;;;;;;;53.92;33.85;;;;;;;;;;4884419;29;20053;-94
2023/03/30 21:11:08;;;;;;;62.33;38.13;;;;;;;;;;4866704;29;20085;-95
2023/03/30 21:13:35;;;;;;;41.60;29.45;;;;;;;;;;4866256;29;20376;-95
2023/03/30 21:16:04;;;;;;;49.30;34.20;;;;;;;;;;4866504;29;20044;-95
2023/03/30 21:18:45;;;;;;;50.13;35.78;;;;;;;;;;4869664;29;20033;-95
2023/03/30 21:21:11;;;;;;;62.45;42.85;;;;;;;;;;4884638;29;20044;-94
2023/03/30 21:23:43;;;;;;;58.10;39.33;;;;;;;;;;4866605;29;20521;-95
2023/03/30 21:26:10;;;;;;;60.10;38.45;;;;;;;;;;4885151;29;20466;-95
2023/03/30 21:28:36;;;;;;;46.15;31.42;;;;;;;;;;4868535;29;20032;-94
2023/03/30 21:31:15;;;;;;;60.17;40.67;;;;;;;;;;4870640;29;20096;-94
2023/03/30 21:36:46;;;;;;;;;;;;;;;;;;4903638;29;20052;-95
2023/03/30 21:39:22;;;;;;;45.85;30.63;;;;;;;;;;4885322;29;19911;-95
2023/03/30 21:50:50;;;;;;;41.28;28.50;;;;;;;;;;5015016;23;20024;-94
2023/03/30 21:56:37;;;;;;;56.00;35.38;;;;;;;;;;4846010;29;20103;-96
2023/03/30 21:59:20;;;;;;;59.28;35.65;;;;;;;;;;4830514;29;20030;-95
2023/03/30 22:01:49;;;;;;;;;;;;;;;;;;4878569;29;20459;-93
2023/03/30 22:04:18;;;;;;;45.15;30.77;;;;;;;;;;4866324;29;20380;-95
2023/03/30 22:06:51;;;;;;;61.25;38.85;;;;;;;;;;4867133;29;20120;-96
2023/03/30 22:14:50;;;;;;;52.15;34.67;;;;;;;;;;4883398;29;20394;-95
2023/03/30 22:17:40;;;;;;;56.00;36.83;;;;;;;;;;4867003;29;20029;-95
2023/03/30 22:20:08;;;;;;;64.05;37.70;;;;;;;;;;4883484;29;20052;-94
2023/03/30 22:22:35;;;;;;;72.90;42.50;;;;;;;;;;4866788;29;20025;-95
2023/03/30 22:27:56;;;;;;;56.80;35.50;;;;;;;;;;4882009;29;20040;-93
2023/03/30 22:30:23;;;;;;;59.50;39.35;;;;;;;;;;4880821;29;20060;-95
2023/03/30 22:32:50;;;;;;;47.28;30.80;;;;;;;;;;4866116;29;20033;-94
2023/03/30 22:35:16;;;;;;;48.17;32.85;;;;;;;;;;4866581;29;20440;-95
2023/03/30 22:37:45;;;;;;;51.20;33.75;;;;;;;;;;4865023;29;20037;-94
2023/03/30 22:40:12;;;;;;;47.70;33.63;;;;;;;;;;4848232;29;20069;-94
2023/03/30 22:42:38;;;;;;;69.20;41.10;;;;;;;;;;4865764;29;20037;-94
2023/03/30 22:48:08;;;;;;;59.20;35.72;;;;;;;;;;4884869;29;20085;-94
2023/03/30 22:50:37;;;;;;;47.35;30.90;;;;;;;;;;4866761;29;20121;-95
2023/03/30 22:53:09;;;;;;;54.65;35.10;;;;;;;;;;4867339;29;20039;-95
2023/03/30 22:55:47;;;;;;;56.00;34.70;;;;;;;;;;4867209;29;20030;-93
2023/03/30 22:58:28;;;;;;;58.17;34.55;;;;;;;;;;4859340;29;20045;-93
2023/03/30 23:01:01;;;;;;;50.33;31.88;;;;;;;;;;4851867;29;20053;-95
2023/03/30 23:03:37;;;;;;;;;;;;;;;;;;;;;
2023/03/30 23:06:04;;;;;;;57.80;33.60;;;;;;;;;;4862612;29;20494;-93
2023/03/30 23:08:33;;;;;;;58.80;35.00;;;;;;;;;;4844342;29;20037;-95
2023/03/30 23:11:03;;;;;;;43.60;29.08;;;;;;;;;;4847822;29;20142;-95
2023/03/30 23:13:40;;;;;;;67.20;41.65;;;;;;;;;;4847984;29;20030;-95
2023/03/30 23:16:09;;;;;;;67.88;41.20;;;;;;;;;;4847008;29;20048;-95
2023/03/30 23:18:38;;;;;;;59.63;36.53;;;;;;;;;;4846790;29;20026;-96
2023/03/30 23:21:09;;;;;;;55.75;35.42;;;;;;;;;;4848645;29;20407;-94
2023/03/30 23:23:36;;;;;;;62.95;37.40;;;;;;;;;;4847834;29;20054;-95
2023/03/30 23:26:09;;;;;;;65.15;40.53;;;;;;;;;;4854040;29;20048;-95
2023/03/30 23:28:39;;;;;;;73.03;44.00;;;;;;;;;;4870873;29;20021;-95
2023/03/30 23:34:22;;;;;;;74.43;42.05;;;;;;;;;;4884825;29;20097;-95
2023/03/30 23:36:49;;;;;;;61.25;37.38;;;;;;;;;;4868494;29;20097;-95
2023/03/30 23:39:19;;;;;;;80.25;45.08;;;;;;;;;;4866874;29;20534;-95
2023/03/30 23:41:45;;;;;;;75.97;44.42;;;;;;;;;;4865817;29;20045;-95
2023/03/30 23:44:15;;;;;;;69.13;41.15;;;;;;;;;;4867302;29;20169;-95
2023/03/30 23:46:44;;;;;;;81.78;45.83;;;;;;;;;;4869198;29;20049;-95
2023/03/30 23:49:10;;;;;;;68.05;38.28;;;;;;;;;;4867892;29;20126;-93
2023/03/30 23:51:36;;;;;;;58.38;36.35;;;;;;;;;;4869649;29;20077;-94
2023/03/30 23:54:06;;;;;;;44.80;29.40;;;;;;;;;;4869764;29;20116;-96
2023/03/30 23:56:52;;;;;;;;;;;;;;;;;;;;;
2023/03/30 23:59:25;;;;;;;30.23;19.35;;;;;;;;;;4882870;29;20039;-93
